• Join FlightAware (Why Join?)
  • Login
  • US Flag 
02:09AM EST


 

Airport Tracker/Info


-or-


 

Live Flight TrackerFlight Track Log ✈ N10EC ✈ 07-May-2013 ✈ 3A2 - KBNA

Flight Track Log - Related Links

Times and Time Zones

All times are in EDT time to prevent confusion due to time zone crossing. See the N10EC flight status page for this flight to view local times or setup timezone preferences in your user account.

Time Position Orientation Groundspeed Altitude Reporting Facility
EDT Latitude Longitude Course Direction KTS MPH feet Rate Location/Type
03:35PM 36.3808 -83.6286 241° Southwest 281 323 4,200  Level Atlanta Center
03:36PM 36.3561 -83.6803 239° Southwest 215 247 6,200 2,040 Climbing Atlanta Center
03:37PM 36.3311 -83.7372 241° Southwest 193 222 8,300 2,040 Climbing Atlanta Center
03:38PM 36.2194 -83.9612 238° Southwest  Level FlightAware Approximate
03:38PM 36.3061 -83.7939 241° Southwest 188 216 10,300  Level Atlanta Center
03:39PM 36.1879 -84.0300 241° Southwest  Level FlightAware Approximate
03:39PM 36.2814 -83.8558 244° Southwest 193 222 12,300  Level Atlanta Center
03:40PM 36.1566 -84.0989 241° Southwest  Level FlightAware Approximate
03:40PM 36.2522 -83.9178 240° Southwest 210 242 13,600  Level Atlanta Center
03:41PM 36.2208 -83.9872 241° Southwest 224 258 15,300 1,140 Climbing Atlanta Center
03:42PM 36.1875 -84.0644 242° Southwest 241 277 15,900 300 Climbing Atlanta Center
03:43PM 36.1500 -84.1544 243° Southwest 269 310 16,000  Climbing Atlanta Center
03:44PM 36.1103 -84.2417 241° Southwest 284 327 15,900  Descending Atlanta Center
03:45PM 36.0706 -84.3289 241° Southwest 295 339 16,000  Climbing Atlanta Center
03:46PM 36.0328 -84.4186 243° Southwest 295 339 16,000  Level Atlanta Center
03:47PM 35.9928 -84.5058 240° Southwest 295 339 16,000  Level Atlanta Center
03:48PM 35.9528 -84.5928 240° Southwest 295 339 16,000  Level Atlanta Center
03:49PM 35.9147 -84.6822 242° Southwest 295 339 16,000 -60 Level Atlanta Center
03:50PM 35.8747 -84.7692 240° Southwest 290 334 15,900  Descending Atlanta Center
03:51PM 35.8386 -84.8558 243° Southwest 290 334 16,000  Climbing Atlanta Center
03:52PM 35.7942 -84.9475 239° Southwest 290 334 15,900 -60 Descending Atlanta Center
03:54PM 35.7683 -85.1122 259° West 277 319 15,900  Level Memphis Center
03:55PM 35.7597 -85.2050 264° West 272 313 16,000  Climbing Memphis Center
03:56PM 35.7511 -85.3000 264° West 277 319 16,000 -60 Level Memphis Center
03:57PM 35.7422 -85.3953 263° West 277 319 15,900 -240 Descending Memphis Center
03:58PM 35.7356 -85.4903 265° West 277 319 15,600 -660 Descending Memphis Center
03:59PM 35.7250 -85.5881 262° West 284 327 14,700 -960 Descending Memphis Center
04:00PM 35.7164 -85.6908 264° West 296 341 13,700 -960 Descending Memphis Center
04:01PM 35.7072 -85.7858 263° West 296 341 12,800 -960 Descending Memphis Center
04:02PM 35.7006 -85.8886 265° West 296 341 11,800 -1,020 Descending Memphis Center
04:03PM 35.6914 -85.9836 263° West 290 334 10,800 -1,080 Descending Memphis Center
04:04PM 35.6864 -86.0758 266° West 290 334 9,700 -1,080 Descending Memphis Center
04:05PM 35.7306 -86.1453 308° West 257 296 8,700 -1,200 Descending Memphis Center
04:06PM 35.7639 -86.2075 303° West 237 273 7,400 -1,500 Descending Memphis Center
04:07PM 35.7847 -86.2678 293° West 218 251 5,700 -1,740 Descending Memphis Center
04:08PM 35.8119 -86.3381 296° West 218 251 4,000 -900 Descending Memphis Center
04:09PM 35.8369 -86.4033 295° West 218 251 3,900 -180 Descending Memphis Center
04:10PM 35.8600 -86.4739 292° West 218 251 3,700 -540 Descending Memphis Center
04:11PM 35.8972 -86.5339 307° West 218 251 2,900 -420 Descending Memphis Center
04:12PM 35.9425 -86.5803 320° Northwest 213 245 2,900 -180 Level Memphis Center
04:13PM 35.9900 -86.6294 320° Northwest 201 231 2,600 -480 Descending Memphis Center
04:14PM 36.0308 -86.6714 320° Northwest 196 226 2,000 -600 Descending Memphis Center
04:15PM 36.0672 -86.7006 327° Northwest 177 204 1,400 -660 Descending Memphis Center
04:16PM 36.0939 -86.6942 11° North 137 158 800 -660 Descending Memphis Center
04:18PM 36.1167 -86.6667 141° Southeast  Level FlightAware Approximate